KNGU/NGU METAR and TAF weather

Enter ICAO airport designator
Station Type Date Time Source
KNGU METAR 2018/12/17 15:59 UTC NOAA

KNGU 171559Z 25008KT 10SM CLR 09/04 A2994 RMK AO2 SLP138 T00890039


Station Type Date Time Source
KNGU Decoded METAR 2018/12/17 15:59 UTC NOAA

Norfolk, Naval Air Station, VA, United States (KNGU) 36-56-01N 076-17-45W 8M
Dec 17, 2018 - 10:59 AM EST / 2018.12.17 1559 UTC
Wind: from the WSW (250 degrees) at 9 MPH (8 KT):0
Visibility: 10 mile(s):0
Sky conditions: clear
Temperature: 48.0 F (8.9 C)
Dew Point: 39.0 F (3.9 C)
Relative Humidity: 70%
Pressure (altimeter): 29.94 in. Hg (1013 hPa)
ob: KNGU 171559Z 25008KT 10SM CLR 09/04 A2994 RMK AO2 SLP138 T00890039
cycle: 16

Station Type Date Time Source
KNGU TAF 2018/12/17 15:03 UTC NOAA

TAF KNGU 1715/1815 27011KT 9999 FEW250 522609 523505 QNH2988INS
FM180300 34014G22KT 9999 SCT030 520009 522609 523505 QNH2995INS T14/1719Z T04/1811Z FN20004


Example: see airport list